createdAt,value
2018-07-30T00:02:18.101Z,19.90
2018-07-30T00:04:46.666Z,19.90
2018-07-30T00:09:43.275Z,19.80
2018-07-30T00:12:11.697Z,19.80
2018-07-30T00:14:40.119Z,19.70
2018-07-30T00:17:08.663Z,19.70
2018-07-30T00:19:37.116Z,19.70
2018-07-30T00:22:05.631Z,19.60
2018-07-30T00:24:34.094Z,19.60
2018-07-30T00:29:30.795Z,19.40
2018-07-30T00:31:59.329Z,19.30
2018-07-30T00:34:27.900Z,19.30
2018-07-30T00:36:56.472Z,19.30
2018-07-30T00:39:24.977Z,19.00
2018-07-30T00:41:53.427Z,19.10
2018-07-30T00:44:21.873Z,19.40
2018-07-30T00:49:18.693Z,19.40
2018-07-30T00:51:47.167Z,19.20
2018-07-30T00:54:15.610Z,19.10
2018-07-30T00:56:44.129Z,19.20
2018-07-30T00:59:12.600Z,19.20
2018-07-30T01:04:09.301Z,19.20
2018-07-30T01:09:08.269Z,19.20
2018-07-30T01:11:36.737Z,19.20
2018-07-30T01:14:05.200Z,19.00
2018-07-30T01:16:33.777Z,19.10
2018-07-30T01:19:02.253Z,19.00
2018-07-30T01:21:30.811Z,18.90
2018-07-30T01:23:59.284Z,18.80
2018-07-30T01:28:56.685Z,18.60
2018-07-30T01:31:25.241Z,18.60
2018-07-30T01:33:54.009Z,18.60
2018-07-30T01:38:51.201Z,18.60
2018-07-30T01:41:19.833Z,18.60
2018-07-30T01:43:48.349Z,18.40
2018-07-30T01:46:16.828Z,18.60
2018-07-30T01:48:45.289Z,18.00
2018-07-30T01:51:13.786Z,18.50
2018-07-30T01:53:42.214Z,18.50
2018-07-30T01:56:10.626Z,18.40
2018-07-30T01:58:39.091Z,18.30
2018-07-30T02:01:07.568Z,18.20
2018-07-30T02:03:36.024Z,18.50
2018-07-30T02:06:04.566Z,18.30
2018-07-30T02:08:33.041Z,18.20
2018-07-30T02:11:01.482Z,18.20
2018-07-30T02:13:30.000Z,18.10
2018-07-30T02:15:58.534Z,18.10
2018-07-30T02:20:55.163Z,18.00
2018-07-30T02:23:23.756Z,17.90
2018-07-30T02:25:52.266Z,18.00
2018-07-30T02:28:20.771Z,18.00
2018-07-30T02:30:49.218Z,17.90
2018-07-30T02:33:17.847Z,18.00
2018-07-30T02:40:44.076Z,18.00
2018-07-30T02:43:12.621Z,17.90
2018-07-30T02:48:15.323Z,17.60
2018-07-30T02:50:44.599Z,17.50
2018-07-30T02:55:41.531Z,17.60
2018-07-30T03:00:55.641Z,17.50
2018-07-30T03:03:24.530Z,17.30
2018-07-30T03:05:53.057Z,17.60
2018-07-30T03:10:50.239Z,17.70
2018-07-30T03:13:18.962Z,17.70
2018-07-30T03:15:47.701Z,17.60
2018-07-30T03:18:16.196Z,17.30
2018-07-30T03:20:45.399Z,17.70
2018-07-30T03:25:42.453Z,17.70
2018-07-30T03:28:10.967Z,17.60
2018-07-30T03:30:39.613Z,17.60
2018-07-30T03:33:15.943Z,17.70
2018-07-30T03:35:44.530Z,17.50
2018-07-30T03:38:13.072Z,17.40
2018-07-30T03:40:41.721Z,17.60
2018-07-30T03:43:10.414Z,17.50
2018-07-30T03:45:40.375Z,17.40
2018-07-30T03:48:09.146Z,17.30
2018-07-30T03:50:37.680Z,17.40
2018-07-30T03:53:06.353Z,17.40
2018-07-30T03:55:35.060Z,17.40
2018-07-30T03:58:03.658Z,17.30
2018-07-30T04:00:32.212Z,17.40
2018-07-30T04:12:53.914Z,17.10
2018-07-30T04:15:22.504Z,17.10
2018-07-30T04:17:51.108Z,17.30
2018-07-30T04:20:19.613Z,17.30
2018-07-30T04:22:48.193Z,17.50
2018-07-30T04:25:16.647Z,17.70
2018-07-30T04:27:45.109Z,17.50
2018-07-30T04:32:41.741Z,17.60
2018-07-30T04:35:10.214Z,17.60
2018-07-30T04:37:38.821Z,17.50
2018-07-30T04:57:28.878Z,18.00
2018-07-30T04:59:57.287Z,18.30
2018-07-30T05:02:25.842Z,17.90
2018-07-30T05:04:54.252Z,18.10
2018-07-30T05:12:19.225Z,18.20
2018-07-30T05:14:52.557Z,18.30
2018-07-30T05:17:20.977Z,18.30
2018-07-30T05:19:49.447Z,18.40
2018-07-30T05:27:14.457Z,18.80
2018-07-30T05:32:11.555Z,19.10
2018-07-30T05:37:08.159Z,19.40
2018-07-30T05:39:36.673Z,19.50
2018-07-30T05:44:33.287Z,19.90
2018-07-30T05:49:30.001Z,20.00
2018-07-30T05:51:58.538Z,20.10
2018-07-30T05:54:27.090Z,20.10
2018-07-30T05:56:55.617Z,20.10
2018-07-30T06:01:52.389Z,20.40
2018-07-30T06:04:21.127Z,20.60
2018-07-30T06:06:49.815Z,20.80
2018-07-30T06:09:18.393Z,20.90
2018-07-30T06:16:43.724Z,21.20
2018-07-30T06:19:12.206Z,21.40
2018-07-30T06:21:40.820Z,21.60
2018-07-30T06:24:19.003Z,22.10
2018-07-30T06:29:36.511Z,23.00
2018-07-30T06:32:05.029Z,23.20
2018-07-30T06:34:33.581Z,23.40
2018-07-30T06:37:07.780Z,23.70
2018-07-30T06:39:47.171Z,24.00
2018-07-30T06:42:16.181Z,24.20
2018-07-30T06:44:45.031Z,24.50
2018-07-30T06:47:13.687Z,24.60
2018-07-30T06:54:49.353Z,25.10
2018-07-30T06:57:18.313Z,25.30
2018-07-30T06:59:47.001Z,25.40
2018-07-30T07:04:50.123Z,25.80
2018-07-30T07:07:18.610Z,26.00
2018-07-30T07:09:47.133Z,26.00
2018-07-30T07:12:15.713Z,26.10
2018-07-30T07:14:44.244Z,26.20
2018-07-30T07:17:12.692Z,26.50
2018-07-30T07:19:41.277Z,26.60
2018-07-30T07:22:09.841Z,26.40
2018-07-30T07:24:38.337Z,26.50
2018-07-30T07:27:06.959Z,26.50
2018-07-30T07:29:35.432Z,26.30
2018-07-30T07:32:03.967Z,26.40
2018-07-30T07:37:00.619Z,26.50
2018-07-30T07:39:29.064Z,26.60
2018-07-30T07:41:57.467Z,26.60
2018-07-30T07:44:25.969Z,26.70
2018-07-30T07:46:54.489Z,26.70
2018-07-30T07:51:51.325Z,27.10
2018-07-30T07:56:48.047Z,27.30
2018-07-30T07:59:16.723Z,27.80
2018-07-30T08:01:49.118Z,27.90
2018-07-30T08:04:17.823Z,28.30
2018-07-30T08:09:14.496Z,29.00
2018-07-30T08:11:42.976Z,29.10
2018-07-30T08:14:11.519Z,29.50
2018-07-30T08:16:40.006Z,29.80
2018-07-30T08:19:08.525Z,29.90
2018-07-30T08:21:37.030Z,30.20
2018-07-30T08:24:05.705Z,30.30
2018-07-30T08:26:34.770Z,30.00
2018-07-30T08:29:03.396Z,29.90
2018-07-30T08:31:31.933Z,30.20
2018-07-30T08:34:00.430Z,30.50
2018-07-30T08:36:28.960Z,31.00
2018-07-30T08:38:57.397Z,31.10
2018-07-30T08:41:25.855Z,26.80
2018-07-30T08:43:54.289Z,31.20
2018-07-30T08:48:50.937Z,31.60
2018-07-30T08:51:19.355Z,31.70
2018-07-30T08:56:16.049Z,32.00
2018-07-30T08:58:44.487Z,31.90
2018-07-30T09:01:12.978Z,32.30
2018-07-30T09:03:41.438Z,32.30
2018-07-30T09:08:38.025Z,32.40
2018-07-30T09:11:06.536Z,32.40
2018-07-30T09:13:35.093Z,32.70
2018-07-30T09:16:03.568Z,32.60
2018-07-30T09:18:32.002Z,32.70
2018-07-30T09:21:00.486Z,33.00
2018-07-30T09:23:29.218Z,33.20
2018-07-30T09:25:57.662Z,33.80
2018-07-30T09:28:26.112Z,33.30
2018-07-30T09:30:54.607Z,33.10
2018-07-30T09:33:23.113Z,33.60
2018-07-30T09:35:51.556Z,33.70
2018-07-30T09:38:19.956Z,32.70
2018-07-30T09:40:48.398Z,32.70
2018-07-30T09:43:16.935Z,33.30
2018-07-30T09:45:45.428Z,33.60
2018-07-30T09:48:13.927Z,33.30
2018-07-30T09:55:38.590Z,33.20
2018-07-30T09:58:07.004Z,34.00
2018-07-30T10:00:40.968Z,33.90
2018-07-30T10:03:10.329Z,33.90
2018-07-30T10:05:39.105Z,33.50
2018-07-30T10:08:07.601Z,33.80
2018-07-30T10:13:04.188Z,33.10
2018-07-30T10:20:28.960Z,32.30
2018-07-30T10:27:53.746Z,32.40
2018-07-30T10:30:22.416Z,32.80
2018-07-30T10:32:50.957Z,33.10
2018-07-30T10:37:47.787Z,33.70
2018-07-30T10:40:16.286Z,34.00
2018-07-30T10:42:45.707Z,34.20
2018-07-30T10:45:14.246Z,34.50
2018-07-30T10:47:42.827Z,34.70
2018-07-30T10:50:11.269Z,35.30
2018-07-30T10:52:39.719Z,35.70
2018-07-30T10:55:08.238Z,35.60
2018-07-30T11:00:05.008Z,35.40
2018-07-30T11:02:33.483Z,35.60
2018-07-30T11:07:31.058Z,36.10
2018-07-30T11:09:59.497Z,36.40
2018-07-30T11:12:28.016Z,36.50
2018-07-30T11:14:56.550Z,37.00
2018-07-30T11:17:25.035Z,36.80
2018-07-30T11:19:53.506Z,36.80
2018-07-30T11:22:22.162Z,36.80
2018-07-30T11:24:50.615Z,37.00
2018-07-30T11:27:19.107Z,36.10
2018-07-30T11:32:15.821Z,36.30
2018-07-30T11:34:44.244Z,35.90
2018-07-30T11:37:12.741Z,36.00
2018-07-30T11:39:41.234Z,35.50
2018-07-30T11:42:09.816Z,35.40
2018-07-30T11:44:38.344Z,35.70
2018-07-30T11:47:07.146Z,35.10
2018-07-30T11:54:33.624Z,36.20
2018-07-30T11:57:02.073Z,36.40
2018-07-30T12:01:58.757Z,36.50
2018-07-30T12:04:27.511Z,36.90
2018-07-30T12:06:56.131Z,36.90
2018-07-30T12:09:24.568Z,36.80
2018-07-30T12:11:53.173Z,36.60
2018-07-30T12:14:21.579Z,36.70
2018-07-30T12:16:50.026Z,36.90
2018-07-30T12:21:53.220Z,35.50
2018-07-30T12:24:21.620Z,36.10
2018-07-30T12:26:50.068Z,36.40
2018-07-30T12:29:18.668Z,36.70
2018-07-30T12:31:47.160Z,36.80
2018-07-30T12:34:15.648Z,36.90
2018-07-30T12:36:44.090Z,36.80
2018-07-30T12:39:12.630Z,36.70
2018-07-30T12:44:09.195Z,36.30
2018-07-30T12:46:37.666Z,35.50
2018-07-30T12:49:06.132Z,34.10
2018-07-30T12:51:34.654Z,34.10
2018-07-30T12:54:03.098Z,33.70
2018-07-30T12:58:59.777Z,33.30
2018-07-30T13:01:28.289Z,33.30
2018-07-30T13:03:57.048Z,33.20
2018-07-30T13:06:25.558Z,33.00
2018-07-30T13:08:54.057Z,32.90
2018-07-30T13:11:22.541Z,32.90
2018-07-30T13:13:51.122Z,32.80
2018-07-30T13:16:19.622Z,32.70
2018-07-30T13:18:48.076Z,32.90
2018-07-30T13:21:16.545Z,32.90
2018-07-30T13:28:56.948Z,32.50
2018-07-30T13:33:57.160Z,32.60
2018-07-30T13:36:26.169Z,32.50
2018-07-30T13:38:56.247Z,32.50
2018-07-30T13:44:21.239Z,32.70
2018-07-30T13:46:58.762Z,32.40
2018-07-30T13:49:45.575Z,32.40
2018-07-30T13:52:14.323Z,32.20
2018-07-30T13:54:42.763Z,32.10
2018-07-30T13:57:11.436Z,32.10
2018-07-30T13:59:45.133Z,32.10
2018-07-30T14:04:48.568Z,31.70
2018-07-30T14:07:17.139Z,31.80
2018-07-30T14:09:53.812Z,31.90
2018-07-30T14:12:31.419Z,31.90
2018-07-30T14:15:00.174Z,31.80
2018-07-30T14:17:30.314Z,32.00
2018-07-30T14:19:59.096Z,32.00
2018-07-30T14:22:27.672Z,32.00
2018-07-30T14:24:57.757Z,31.90
2018-07-30T14:27:26.296Z,31.80
2018-07-30T14:29:54.876Z,31.90
2018-07-30T14:32:23.501Z,31.90
2018-07-30T14:34:52.053Z,31.80
2018-07-30T14:39:48.935Z,31.70
2018-07-30T14:44:45.561Z,31.80
2018-07-30T14:47:14.095Z,31.70
2018-07-30T14:49:47.593Z,32.30
2018-07-30T14:57:27.211Z,31.80
2018-07-30T15:00:04.938Z,31.90
2018-07-30T15:05:08.439Z,31.90
2018-07-30T15:12:51.457Z,32.00
2018-07-30T15:18:04.160Z,31.90
2018-07-30T15:23:49.174Z,31.90
2018-07-30T15:26:22.015Z,31.70
2018-07-30T15:29:00.375Z,31.80
2018-07-30T15:31:37.179Z,31.70
2018-07-30T15:37:07.314Z,31.70
2018-07-30T15:39:45.231Z,31.70
2018-07-30T15:42:28.148Z,31.80
2018-07-30T15:45:08.154Z,31.80
2018-07-30T15:47:40.914Z,31.70
2018-07-30T15:55:13.701Z,31.60
2018-07-30T15:57:45.770Z,31.90
2018-07-30T16:00:21.053Z,31.70
2018-07-30T16:02:56.919Z,31.70
2018-07-30T16:05:25.490Z,31.50
2018-07-30T16:07:54.005Z,31.70
2018-07-30T16:10:25.759Z,31.60
2018-07-30T16:12:54.194Z,31.60
2018-07-30T16:17:50.846Z,31.50
2018-07-30T16:22:47.681Z,31.50
2018-07-30T16:25:16.222Z,31.50
2018-07-30T16:27:44.924Z,31.60
2018-07-30T16:30:17.753Z,31.30
2018-07-30T16:35:14.757Z,31.40
2018-07-30T16:37:43.402Z,31.30
2018-07-30T16:42:41.685Z,31.20
2018-07-30T16:45:10.623Z,31.20
2018-07-30T16:47:39.101Z,31.10
2018-07-30T16:50:08.388Z,31.00
2018-07-30T16:52:36.888Z,31.10
2018-07-30T16:55:05.811Z,31.00
2018-07-30T16:57:34.418Z,30.90
2018-07-30T17:00:02.926Z,30.70
2018-07-30T17:04:59.737Z,30.70
2018-07-30T17:07:28.295Z,30.70
2018-07-30T17:09:56.839Z,30.60
2018-07-30T17:12:25.395Z,30.60
2018-07-30T17:14:53.911Z,30.50
2018-07-30T17:17:22.364Z,30.50
2018-07-30T17:22:19.114Z,30.30
2018-07-30T17:24:47.860Z,30.20
2018-07-30T17:27:18.210Z,30.20
2018-07-30T17:29:47.724Z,30.20
2018-07-30T17:32:30.785Z,30.10
2018-07-30T17:34:59.292Z,30.10
2018-07-30T17:37:27.762Z,30.20
2018-07-30T17:39:56.404Z,30.00
2018-07-30T17:44:53.239Z,29.80
2018-07-30T17:49:49.967Z,29.70
2018-07-30T17:52:18.381Z,29.70
2018-07-30T17:54:46.834Z,29.60
2018-07-30T17:57:15.383Z,29.50
2018-07-30T17:59:43.929Z,29.40
2018-07-30T18:02:12.552Z,29.30
2018-07-30T18:04:41.021Z,29.50
2018-07-30T18:07:09.536Z,29.20
2018-07-30T18:14:34.728Z,29.10
2018-07-30T18:17:03.317Z,28.80
2018-07-30T18:19:31.911Z,28.80
2018-07-30T18:22:01.472Z,29.10
2018-07-30T18:26:59.065Z,28.70
2018-07-30T18:31:56.122Z,28.30
2018-07-30T18:41:50.159Z,27.70
2018-07-30T18:46:46.937Z,27.40
2018-07-30T18:49:15.868Z,27.50
2018-07-30T18:51:44.325Z,27.70
2018-07-30T18:54:12.847Z,27.20
2018-07-30T19:04:06.821Z,27.60
2018-07-30T19:09:03.814Z,27.10
2018-07-30T19:14:01.478Z,27.00
2018-07-30T19:16:29.997Z,27.50
2018-07-30T19:18:59.532Z,27.30
2018-07-30T19:21:28.172Z,27.00
2018-07-30T19:23:56.774Z,26.90
2018-07-30T19:26:25.314Z,27.00
2018-07-30T19:31:24.378Z,26.90
2018-07-30T19:33:53.657Z,26.60
2018-07-30T19:38:51.934Z,26.60
2018-07-30T19:41:21.731Z,26.30
2018-07-30T19:43:51.640Z,26.70
2018-07-30T19:46:22.017Z,26.70
2018-07-30T19:48:51.483Z,26.20
2018-07-30T19:51:20.069Z,26.50
2018-07-30T19:53:49.157Z,26.40
2018-07-30T19:58:46.681Z,25.70
2018-07-30T20:08:42.255Z,25.30
2018-07-30T20:11:11.055Z,25.30
2018-07-30T20:13:41.322Z,25.30
2018-07-30T20:16:10.067Z,25.20
2018-07-30T20:18:38.668Z,25.20
2018-07-30T20:21:08.343Z,25.00
2018-07-30T20:23:37.160Z,24.80
2018-07-30T20:28:34.142Z,24.60
2018-07-30T20:33:31.154Z,24.60
2018-07-30T20:36:00.124Z,24.50
2018-07-30T20:38:29.289Z,24.50
2018-07-30T20:40:58.512Z,24.40
2018-07-30T20:43:27.591Z,24.20
2018-07-30T20:45:56.298Z,24.40
2018-07-30T20:50:54.004Z,24.40
2018-07-30T20:53:23.532Z,24.20
2018-07-30T20:55:52.383Z,24.20
2018-07-30T20:58:21.005Z,24.00
2018-07-30T21:00:49.600Z,24.10
2018-07-30T21:03:19.123Z,24.00
2018-07-30T21:08:16.689Z,23.90
2018-07-30T21:13:17.013Z,24.00
2018-07-30T21:15:46.129Z,23.80
2018-07-30T21:18:15.072Z,23.60
2018-07-30T21:20:43.817Z,23.30
2018-07-30T21:23:13.927Z,23.40
2018-07-30T21:25:42.510Z,23.10
2018-07-30T21:28:11.220Z,23.20
2018-07-30T21:30:39.841Z,23.10
2018-07-30T21:33:09.169Z,23.00
2018-07-30T21:35:38.233Z,22.90
2018-07-30T21:38:07.027Z,22.90
2018-07-30T21:40:35.596Z,22.80
2018-07-30T21:50:29.572Z,22.70
2018-07-30T21:52:58.241Z,22.60
2018-07-30T21:55:26.769Z,22.40
2018-07-30T21:57:55.582Z,22.30
2018-07-30T22:00:25.807Z,22.40
2018-07-30T22:10:22.636Z,22.00
2018-07-30T22:12:52.514Z,21.90
2018-07-30T22:15:21.602Z,21.90
2018-07-30T22:17:50.538Z,22.00
2018-07-30T22:20:19.068Z,22.00
2018-07-30T22:22:47.618Z,22.00
2018-07-30T22:25:16.284Z,22.10
2018-07-30T22:27:44.754Z,22.00
2018-07-30T22:30:13.433Z,21.90
2018-07-30T22:35:10.380Z,21.80
2018-07-30T22:47:32.597Z,21.30
2018-07-30T22:50:01.038Z,21.10
2018-07-30T22:52:29.650Z,21.40
2018-07-30T22:57:26.293Z,21.10
2018-07-30T22:59:54.788Z,21.10
2018-07-30T23:04:53.020Z,21.10
2018-07-30T23:07:22.052Z,20.80
2018-07-30T23:12:19.005Z,20.80
2018-07-30T23:14:47.994Z,20.80
2018-07-30T23:19:44.777Z,20.80
2018-07-30T23:22:13.494Z,20.90
2018-07-30T23:27:10.146Z,21.10
2018-07-30T23:29:39.749Z,20.90
2018-07-30T23:32:08.447Z,20.80
2018-07-30T23:34:37.103Z,20.70
2018-07-30T23:39:33.839Z,20.60
2018-07-30T23:42:02.380Z,20.50
2018-07-30T23:44:30.796Z,20.60
2018-07-30T23:46:59.398Z,20.70
2018-07-30T23:51:56.094Z,20.60
2018-07-30T23:54:24.591Z,20.40
2018-07-30T23:56:53.088Z,20.60
2018-07-30T23:59:22.226Z,20.60
